Time;durP1;ratioP1;P1;durP2;ratioP2;P2;SDS_P1;SDS_P2;PMS_P1;PMS_P2;Temp;Humidity;BMP_temperature;BMP_pressure;BME280_temperature;BME280_humidity;BME280_pressure;Samples;Min_cycle;Max_cycle;Signal;HPM_P1;HPM_P2
2022/04/21 00:00:41;;;;;;;9.20;3.97;;;;;;;7.99;61.09;97566.66;4995730;28;20223;-70
2022/04/21 00:03:08;;;;;;;5.40;3.93;;;;;;;8.04;61.05;97575.59;4995372;28;20213;-70
2022/04/21 00:05:35;;;;;;;4.20;3.80;;;;;;;8.02;61.28;97568.91;4994948;28;20211;-70
2022/04/21 00:08:01;;;;;;;3.87;3.57;;;;;;;7.99;61.24;97566.66;4995372;28;20234;-70
2022/04/21 00:10:28;;;;;;;6.47;3.57;;;;;;;7.96;62.02;97569.75;4995376;28;20199;-70
2022/04/21 00:12:55;;;;;;;6.03;3.90;;;;;;;7.99;61.02;97550.78;4995243;28;20213;-70
2022/04/21 00:15:23;;;;;;;6.80;3.97;;;;;;;7.95;60.86;97561.00;4995095;28;20258;-70
2022/04/21 00:17:49;;;;;;;7.20;4.50;;;;;;;7.95;61.14;97554.88;4995082;28;20230;-70
2022/04/21 00:20:16;;;;;;;6.60;3.93;;;;;;;7.88;61.48;97556.78;4994742;28;20694;-70
2022/04/21 00:25:27;;;;;;;4.07;3.50;;;;;;;7.91;61.67;97551.03;4995081;28;20171;-70
2022/04/21 00:27:55;;;;;;;7.27;4.40;;;;;;;8.02;60.90;97548.53;4994786;28;20235;-70
2022/04/21 00:30:22;;;;;;;5.27;3.77;;;;;;;8.09;61.10;97544.00;4994895;28;20254;-70
2022/04/21 00:32:48;;;;;;;4.87;3.93;;;;;;;8.16;60.96;97547.41;4995133;28;20215;-70
2022/04/21 00:35:17;;;;;;;4.63;4.23;;;;;;;8.16;61.10;97544.75;4994523;28;20222;-70
2022/04/21 00:37:56;;;;;;;4.33;3.90;;;;;;;8.17;61.04;97542.91;4995023;28;20317;-70
2022/04/21 00:40:26;;;;;;;11.60;4.60;;;;;;;8.04;61.90;97541.19;4994418;28;20238;-70
2022/04/21 00:42:52;;;;;;;7.13;4.20;;;;;;;8.05;61.56;97542.00;4994668;28;20215;-70
2022/04/21 00:45:19;;;;;;;8.97;4.23;;;;;;;8.06;61.87;97536.47;4994913;28;20211;-70
2022/04/21 00:47:47;;;;;;;5.03;4.53;;;;;;;8.09;61.67;97543.16;4994221;28;20709;-70
2022/04/21 00:50:17;;;;;;;6.07;4.37;;;;;;;8.18;61.22;97533.94;4994520;28;20211;-70
2022/04/21 00:52:45;;;;;;;4.90;4.10;;;;;;;8.09;61.94;97525.47;4994651;28;20188;-70
2022/04/21 00:55:12;;;;;;;7.23;4.23;;;;;;;7.83;62.25;97530.16;4994720;28;20213;-70
2022/04/21 00:57:41;;;;;;;4.40;4.00;;;;;;;7.74;62.23;97534.06;4994093;28;20234;-70
2022/04/21 01:00:08;;;;;;;5.57;4.20;;;;;;;7.77;62.04;97533.63;4994333;28;20290;-70
2022/04/21 01:05:26;;;;;;;5.57;4.50;;;;;;;7.53;62.50;97524.63;4994369;28;20178;-70
2022/04/21 01:08:00;;;;;;;6.13;3.93;;;;;;;7.50;63.49;97530.34;4994345;28;20231;-70
2022/04/21 01:10:28;;;;;;;4.70;4.00;;;;;;;7.43;63.88;97531.41;4994417;28;20190;-70
2022/04/21 01:12:55;;;;;;;6.00;4.50;;;;;;;7.38;64.76;97532.03;4994042;28;20689;-70
2022/04/21 01:15:22;;;;;;;4.77;4.37;;;;;;;7.31;65.89;97533.91;4994284;28;20241;-70
2022/04/21 01:17:48;;;;;;;5.63;4.20;;;;;;;7.34;65.16;97535.31;4993638;28;20652;-70
2022/04/21 01:20:20;;;;;;;4.97;3.90;;;;;;;7.20;65.47;97534.56;4994139;28;20223;-70
2022/04/21 01:22:47;;;;;;;4.63;3.93;;;;;;;7.09;66.04;97531.75;4993915;28;20215;-70
2022/04/21 01:25:13;;;;;;;8.23;4.37;;;;;;;7.17;66.04;97534.16;4993800;28;20221;-70
2022/04/21 01:27:41;;;;;;;6.27;4.70;;;;;;;7.25;65.38;97537.41;4993808;28;20262;-70
2022/04/21 01:30:09;;;;;;;7.33;4.40;;;;;;;7.19;65.88;97526.84;4994179;28;20207;-70
2022/04/21 01:32:37;;;;;;;4.93;4.50;;;;;;;7.16;66.74;97528.09;4994138;28;20206;-70
2022/04/21 01:35:06;;;;;;;4.70;4.23;;;;;;;7.29;65.76;97529.84;4994122;28;20269;-70
2022/04/21 01:43:01;;;;;;;6.83;4.20;;;;;;;7.40;65.01;97521.25;4993857;28;20332;-70
2022/04/21 01:45:28;;;;;;;7.30;5.30;;;;;;;7.39;65.13;97520.44;4993985;28;20207;-70
2022/04/21 01:47:57;;;;;;;5.30;4.37;;;;;;;7.32;65.65;97526.78;4993657;28;20237;-70
2022/04/21 01:50:24;;;;;;;7.47;5.23;;;;;;;7.28;66.41;97522.97;4993948;28;20207;-70
2022/04/21 01:52:51;;;;;;;7.90;5.03;;;;;;;7.26;66.55;97525.81;4993883;28;20207;-70
2022/04/21 01:55:18;;;;;;;5.77;5.13;;;;;;;7.25;66.89;97529.47;4993979;28;20569;-70
2022/04/21 01:57:44;;;;;;;6.17;5.57;;;;;;;7.12;68.01;97523.41;4993503;28;20322;-70
2022/04/21 02:00:11;;;;;;;5.40;4.90;;;;;;;7.01;68.92;97513.53;4993823;28;20214;-70
2022/04/21 02:02:37;;;;;;;6.07;5.47;;;;;;;6.95;69.06;97516.97;4993399;28;20689;-70
2022/04/21 02:05:04;;;;;;;6.00;5.00;;;;;;;6.98;69.99;97516.56;4993654;28;20211;-70
2022/04/21 02:07:31;;;;;;;6.23;5.30;;;;;;;6.88;69.62;97521.50;4993532;28;20224;-70
2022/04/21 02:09:57;;;;;;;5.80;5.30;;;;;;;6.82;70.30;97514.38;4993438;28;20569;-71
2022/04/21 02:12:27;;;;;;;5.50;4.80;;;;;;;6.66;70.53;97513.00;4993973;28;20199;-70
2022/04/21 02:14:54;;;;;;;5.83;4.73;;;;;;;6.58;71.08;97512.41;4993773;28;20218;-70
2022/04/21 02:17:20;;;;;;;6.37;5.23;;;;;;;6.53;72.01;97504.31;4993604;28;20228;-70
2022/04/21 02:19:47;;;;;;;7.60;4.87;;;;;;;6.50;72.12;97499.44;4993751;28;20218;-70
2022/04/21 02:22:13;;;;;;;6.80;4.80;;;;;;;6.51;72.28;97493.16;4993275;28;20231;-70
2022/04/21 02:24:40;;;;;;;5.40;4.87;;;;;;;6.40;72.63;97497.22;4994239;28;20211;-70
2022/04/21 02:27:06;;;;;;;5.93;5.33;;;;;;;6.38;73.24;97491.34;4993544;28;20235;-70
2022/04/21 02:29:33;;;;;;;7.30;5.23;;;;;;;6.36;73.24;97495.19;4996939;28;20635;-70
2022/04/21 02:32:01;;;;;;;7.80;5.33;;;;;;;6.34;73.31;97498.03;4997097;28;20203;-70
2022/04/21 02:34:28;;;;;;;7.07;5.73;;;;;;;6.39;72.87;97498.25;4997136;28;20218;-70
2022/04/21 02:36:55;;;;;;;6.53;5.93;;;;;;;6.40;74.04;97501.69;4997029;28;20231;-70
2022/04/21 02:39:21;;;;;;;7.20;6.00;;;;;;;6.23;73.77;97493.41;4996879;28;20211;-70
2022/04/21 02:41:48;;;;;;;9.17;6.00;;;;;;;6.26;73.91;97494.81;4996894;28;20238;-70
2022/04/21 02:44:14;;;;;;;7.53;5.70;;;;;;;6.25;74.25;97486.06;4996909;28;20203;-70
2022/04/21 02:46:41;;;;;;;6.57;5.17;;;;;;;6.15;74.34;97488.31;4996830;28;20203;-70
2022/04/21 02:49:07;;;;;;;9.97;5.90;;;;;;;6.12;75.20;97487.94;4997612;28;20203;-70
2022/04/21 02:51:35;;;;;;;6.40;5.17;;;;;;;6.13;75.39;97486.91;4995378;28;20213;-70
2022/04/21 02:59:30;;;;;;;7.33;6.33;;;;;;;6.08;75.82;97481.44;4996988;28;20648;-70
2022/04/21 03:01:57;;;;;;;7.80;6.10;;;;;;;6.00;76.43;97477.19;4996560;28;20239;-70
2022/04/21 03:04:24;;;;;;;7.53;6.43;;;;;;;6.07;76.07;97480.63;4996577;28;20211;-70
2022/04/21 03:06:50;;;;;;;6.40;5.80;;;;;;;6.10;76.04;97471.50;4996526;28;20250;-70
2022/04/21 03:09:16;;;;;;;6.83;5.97;;;;;;;6.04;75.49;97473.13;4996424;28;20210;-70
2022/04/21 03:11:43;;;;;;;6.40;5.80;;;;;;;6.01;75.98;97460.34;4996350;28;20204;-70
2022/04/21 03:14:09;;;;;;;6.27;5.70;;;;;;;5.92;76.94;97466.03;4996312;28;20210;-70
2022/04/21 03:16:36;;;;;;;6.87;6.03;;;;;;;5.88;76.78;97472.72;4995774;28;20214;-70
2022/04/21 03:19:02;;;;;;;9.80;6.03;;;;;;;5.91;75.66;97465.22;4996196;28;20215;-70
2022/04/21 03:24:21;;;;;;;7.33;6.00;;;;;;;5.81;76.39;97467.47;4996097;28;20198;-70
2022/04/21 03:26:49;;;;;;;7.23;6.50;;;;;;;5.79;76.90;97464.16;4996023;28;20242;-70
2022/04/21 03:29:16;;;;;;;6.77;6.17;;;;;;;5.82;77.52;97465.63;4995809;28;20602;-70
2022/04/21 03:31:43;;;;;;;8.70;6.40;;;;;;;5.86;77.90;97451.84;4996115;28;20199;-71
2022/04/21 03:34:18;;;;;;;7.30;6.20;;;;;;;5.91;76.68;97461.75;4995739;28;20211;-70
2022/04/21 03:36:47;;;;;;;7.73;6.43;;;;;;;5.87;77.00;97456.09;4995293;28;20211;-70
2022/04/21 03:39:13;;;;;;;7.37;6.67;;;;;;;5.81;77.36;97464.81;4995075;28;20297;-70
2022/04/21 03:41:39;;;;;;;8.90;7.83;;;;;;;5.89;76.93;97458.53;4995579;28;20231;-70
2022/04/21 03:44:06;;;;;;;7.97;7.17;;;;;;;5.82;77.68;97462.97;4995560;28;20214;-70
2022/04/21 03:46:32;;;;;;;7.70;6.53;;;;;;;5.78;78.40;97470.47;4995540;28;20214;-70
2022/04/21 03:48:59;;;;;;;7.40;6.70;;;;;;;5.73;78.32;97474.72;4994903;28;20262;-69
2022/04/21 03:51:27;;;;;;;9.27;7.30;;;;;;;5.72;78.23;97468.66;4995597;28;20219;-70
2022/04/21 03:53:54;;;;;;;9.20;7.27;;;;;;;5.77;78.44;97465.38;4995519;28;20208;-70
2022/04/21 03:56:21;;;;;;;8.47;7.20;;;;;;;5.80;79.12;97472.91;4995510;28;20266;-70
2022/04/21 03:58:48;;;;;;;8.20;7.40;;;;;;;5.70;78.85;97464.59;4995390;28;20227;-70
2022/04/21 04:01:14;;;;;;;8.10;7.00;;;;;;;5.79;78.67;97466.00;4995267;28;20230;-70
2022/04/21 04:03:41;;;;;;;9.13;8.03;;;;;;;5.76;79.29;97463.75;4994741;28;20203;-70
2022/04/21 04:10:51;;;;;;;6.97;6.27;;;;;;;5.74;78.71;97461.31;4995128;28;20207;-70
2022/04/21 04:11:38;;;;;;;7.87;6.40;;;;;;;5.73;79.15;97469.44;4994892;28;20198;-70
2022/04/21 04:14:05;;;;;;;7.30;6.40;;;;;;;5.66;78.79;97472.06;4994645;28;20207;-70
2022/04/21 04:16:35;;;;;;;8.53;6.40;;;;;;;5.63;78.15;97469.03;4994430;28;20207;-70
2022/04/21 04:19:03;;;;;;;8.13;6.00;;;;;;;5.59;78.70;97462.53;4994946;28;20215;-69
2022/04/21 04:21:30;;;;;;;7.70;6.83;;;;;;;5.63;79.19;97461.13;4994785;28;20226;-70
2022/04/21 04:23:56;;;;;;;10.40;6.73;;;;;;;5.58;79.04;97471.47;4994888;28;20211;-70
2022/04/21 04:26:22;;;;;;;7.90;6.23;;;;;;;5.60;79.07;97458.88;4995021;28;20219;-70
2022/04/21 04:28:49;;;;;;;10.77;7.20;;;;;;;5.71;79.46;97469.66;4994350;28;20235;-70
2022/04/21 04:31:16;;;;;;;9.17;8.03;;;;;;;5.71;78.61;97471.47;4994836;28;20258;-70
2022/04/21 04:33:43;;;;;;;9.20;7.10;;;;;;;5.65;79.93;97472.28;4994837;28;20203;-70
2022/04/21 04:36:10;;;;;;;10.77;7.50;;;;;;;5.56;80.50;97470.88;4994727;28;20207;-70
2022/04/21 04:38:41;;;;;;;8.47;7.60;;;;;;;5.73;79.54;97469.44;4994126;28;20223;-70
2022/04/21 04:43:47;;;;;;;9.43;7.33;;;;;;;5.71;79.61;97471.47;4993838;28;20207;-70
2022/04/21 04:48:57;;;;;;;8.97;6.73;;;;;;;5.80;79.24;97457.06;4994170;28;20170;-70
2022/04/21 04:51:25;;;;;;;9.60;7.70;;;;;;;5.76;79.45;97463.75;4993139;28;20547;-70
2022/04/21 04:53:53;;;;;;;7.50;6.90;;;;;;;5.80;79.66;97465.84;4994034;28;20210;-70
2022/04/21 04:56:20;;;;;;;9.00;7.73;;;;;;;5.83;80.04;97470.69;4993811;28;20207;-70
2022/04/21 04:58:46;;;;;;;9.30;8.30;;;;;;;5.98;78.60;97462.56;4993461;28;20228;-70
2022/04/21 05:01:13;;;;;;;9.67;8.37;;;;;;;6.10;78.58;97463.59;4993327;28;20659;-70
2022/04/21 05:03:40;;;;;;;9.50;8.60;;;;;;;6.16;78.42;97460.91;4993655;28;20220;-70
2022/04/21 05:06:06;;;;;;;10.00;8.80;;;;;;;6.23;77.56;97458.25;4993863;28;20211;-70
2022/04/21 05:08:34;;;;;;;10.00;8.57;;;;;;;6.43;76.51;97459.03;4993820;28;20227;-70
2022/04/21 05:11:01;;;;;;;9.60;8.73;;;;;;;6.47;77.78;97455.78;4993960;28;20262;-70
2022/04/21 05:13:27;;;;;;;9.60;8.47;;;;;;;6.52;76.87;97457.81;4993783;28;20786;-70
2022/04/21 05:15:54;;;;;;;10.03;8.97;;;;;;;6.66;76.31;97467.31;4993616;28;20681;-70
2022/04/21 05:18:20;;;;;;;9.77;8.77;;;;;;;6.78;75.28;97461.16;4993635;28;20741;-70
2022/04/21 05:20:47;;;;;;;9.03;8.13;;;;;;;6.91;74.93;97468.22;4993818;28;20581;-70
2022/04/21 05:23:15;;;;;;;9.43;8.40;;;;;;;6.94;75.13;97459.88;4993951;28;20306;-70
2022/04/21 05:25:41;;;;;;;9.40;8.53;;;;;;;7.03;73.73;97458.59;4994002;28;20245;-70
2022/04/21 05:28:09;;;;;;;10.20;9.00;;;;;;;7.25;73.64;97462.56;4993317;28;20235;-70
2022/04/21 05:33:23;;;;;;;8.80;7.70;;;;;;;7.36;72.07;97460.06;4993487;28;20214;-70
2022/04/21 05:35:50;;;;;;;10.60;8.27;;;;;;;7.55;72.33;97453.81;4993296;28;20207;-69
2022/04/21 05:38:19;;;;;;;9.73;8.77;;;;;;;7.52;71.55;97453.44;4993856;28;20227;-69
2022/04/21 05:40:45;;;;;;;10.10;8.10;;;;;;;7.70;71.29;97461.44;4993549;28;20269;-69
2022/04/21 05:43:12;;;;;;;10.60;9.60;;;;;;;7.87;71.20;97462.53;4993615;28;20250;-69
2022/04/21 05:45:39;;;;;;;9.57;8.67;;;;;;;7.56;71.54;97452.78;4993567;28;20619;-69
2022/04/21 05:48:06;;;;;;;9.67;8.67;;;;;;;7.65;71.98;97458.63;4993223;28;20710;-69
2022/04/21 05:50:33;;;;;;;10.20;9.10;;;;;;;7.91;69.99;97450.47;4993561;28;20211;-69
2022/04/21 05:53:03;;;;;;;10.30;9.30;;;;;;;8.01;69.89;97458.75;4993488;28;20230;-69
2022/04/21 05:55:30;;;;;;;10.50;9.50;;;;;;;7.94;70.59;97456.16;4993699;28;20207;-69
2022/04/21 05:57:56;;;;;;;12.57;9.70;;;;;;;8.17;69.53;97456.34;4993087;28;20238;-69
2022/04/21 06:00:23;;;;;;;11.07;9.70;;;;;;;8.14;69.49;97458.63;4993893;28;20211;-70
2022/04/21 06:02:49;;;;;;;9.90;8.90;;;;;;;8.34;69.38;97452.16;4993779;28;20698;-68
2022/04/21 06:05:16;;;;;;;9.97;8.97;;;;;;;8.36;68.42;97455.38;4997146;28;20207;-67
2022/04/21 06:07:42;;;;;;;10.73;9.63;;;;;;;8.33;69.49;97452.38;4997363;28;20277;-68
2022/04/21 06:10:09;;;;;;;10.83;9.77;;;;;;;8.35;68.35;97451.13;4996458;28;20207;-67
2022/04/21 06:12:36;;;;;;;11.00;10.00;;;;;;;8.30;68.42;97453.63;4996853;28;20208;-68
2022/04/21 06:15:03;;;;;;;11.20;10.00;;;;;;;8.37;68.55;97453.56;4996940;28;20242;-67
2022/04/21 06:17:30;;;;;;;11.70;9.67;;;;;;;8.45;69.54;97447.94;4996530;28;20728;-67
2022/04/21 06:19:56;;;;;;;10.30;9.37;;;;;;;8.40;69.38;97445.97;4996870;28;20207;-68
2022/04/21 06:22:23;;;;;;;10.53;9.47;;;;;;;8.48;68.37;97443.03;4996776;28;20253;-72
2022/04/21 06:24:49;;;;;;;11.20;10.20;;;;;;;8.45;69.28;97447.94;4996593;28;20215;-68
2022/04/21 06:27:16;;;;;;;12.97;9.47;;;;;;;8.58;68.51;97442.50;4996357;28;20725;-71
2022/04/21 06:29:44;;;;;;;11.17;10.03;;;;;;;8.59;68.80;97444.13;4996446;28;20290;-68
2022/04/21 06:32:10;;;;;;;10.97;9.87;;;;;;;8.71;67.10;97445.00;4995415;28;20277;-68
2022/04/21 06:34:37;;;;;;;11.37;10.33;;;;;;;8.65;67.03;97441.41;4994635;28;20234;-67
2022/04/21 06:37:04;;;;;;;10.47;9.47;;;;;;;8.59;68.02;97442.28;4994263;28;20231;-67
2022/04/21 06:39:30;;;;;;;10.97;9.70;;;;;;;8.82;68.05;97444.28;4994491;28;20575;-67
2022/04/21 06:41:56;;;;;;;11.20;9.77;;;;;;;8.77;68.28;97433.50;4993991;28;20230;-68
2022/04/21 06:49:50;;;;;;;11.23;10.20;;;;;;;8.93;66.81;97448.81;4996461;28;20258;-68
2022/04/21 06:52:17;;;;;;;10.60;9.57;;;;;;;9.13;65.50;97439.59;4995892;28;20207;-69
2022/04/21 06:54:43;;;;;;;13.00;10.50;;;;;;;8.90;65.52;97443.97;4996258;28;20211;-69
2022/04/21 06:57:09;;;;;;;11.40;10.30;;;;;;;8.84;66.43;97442.22;4995894;28;20231;-69
2022/04/21 06:59:36;;;;;;;11.40;10.30;;;;;;;9.05;65.14;97447.06;4996375;28;20207;-69
2022/04/21 07:02:04;;;;;;;11.43;10.33;;;;;;;9.09;65.76;97442.91;4996076;28;20223;-69
2022/04/21 07:04:30;;;;;;;11.33;10.13;;;;;;;9.23;64.59;97445.16;4995838;28;20699;-68
2022/04/21 07:06:57;;;;;;;11.40;10.20;;;;;;;9.18;65.18;97449.50;4996247;28;20291;-69
2022/04/21 07:09:23;;;;;;;11.77;10.60;;;;;;;9.35;65.75;97447.84;4995662;28;20697;-69
2022/04/21 07:11:50;;;;;;;10.53;9.43;;;;;;;9.28;65.02;97447.94;4996213;28;20227;-69
2022/04/21 07:14:16;;;;;;;10.93;9.93;;;;;;;9.02;66.32;97450.97;4994840;28;20214;-69
2022/04/21 07:16:43;;;;;;;11.23;10.23;;;;;;;9.36;64.46;97455.59;4995817;28;20213;-69
2022/04/21 07:19:09;;;;;;;11.53;9.97;;;;;;;9.63;64.19;97448.03;4995624;28;20219;-69
2022/04/21 07:21:40;;;;;;;11.70;9.97;;;;;;;9.79;62.95;97444.72;4996294;28;20207;-69
2022/04/21 07:24:07;;;;;;;11.13;10.10;;;;;;;9.79;64.00;97448.22;4996182;28;20653;-69
2022/04/21 07:26:33;;;;;;;11.07;10.13;;;;;;;9.95;63.34;97446.69;4995647;28;20226;-69
2022/04/21 07:29:00;;;;;;;11.27;10.27;;;;;;;9.90;62.80;97438.63;4996184;28;20207;-69
2022/04/21 07:31:26;;;;;;;11.17;10.17;;;;;;;9.72;61.96;97449.31;4995762;28;20211;-69
2022/04/21 07:33:53;;;;;;;11.20;9.83;;;;;;;9.89;62.90;97448.44;4995343;28;20671;-69
2022/04/21 07:36:19;;;;;;;11.47;10.20;;;;;;;10.03;62.55;97443.72;4995669;28;20258;-69
2022/04/21 07:38:46;;;;;;;11.10;9.97;;;;;;;9.94;60.97;97439.78;4995566;28;20230;-69
2022/04/21 07:41:13;;;;;;;12.10;9.90;;;;;;;10.10;62.65;97441.81;4995632;28;20214;-69
2022/04/21 07:43:42;;;;;;;10.87;9.77;;;;;;;10.41;62.03;97446.78;4995879;28;20331;-69
2022/04/21 07:46:09;;;;;;;11.07;10.07;;;;;;;9.94;61.21;97445.09;4995271;28;20262;-67
2022/04/21 07:51:16;;;;;;;10.73;9.73;;;;;;;10.31;62.32;97434.06;4995044;28;20609;-69
2022/04/21 07:53:41;;;;;;;10.50;9.50;;;;;;;10.39;61.34;97440.88;4995502;28;20290;-69
2022/04/21 07:56:08;;;;;;;11.10;9.90;;;;;;;10.53;61.91;97432.41;4995148;28;20290;-69
2022/04/21 07:58:34;;;;;;;11.00;9.97;;;;;;;10.66;61.83;97421.53;4994848;28;20234;-69
2022/04/21 08:01:00;;;;;;;11.80;10.57;;;;;;;10.69;60.03;97441.53;4995291;28;20207;-68
2022/04/21 08:03:28;;;;;;;11.73;10.00;;;;;;;10.39;62.06;97422.25;4994931;28;20234;-69
2022/04/21 08:05:54;;;;;;;11.23;9.83;;;;;;;10.62;62.18;97424.88;4995036;28;20227;-69
2022/04/21 08:08:20;;;;;;;11.27;10.07;;;;;;;10.91;59.48;97431.88;4995010;28;20247;-69
2022/04/21 08:10:47;;;;;;;10.53;9.53;;;;;;;10.83;60.89;97429.59;4994997;28;20230;-70
2022/04/21 08:13:17;;;;;;;12.40;10.13;;;;;;;11.13;60.29;97432.03;4994850;28;20209;-70
2022/04/21 08:15:44;;;;;;;10.67;9.77;;;;;;;11.18;60.99;97432.13;4994998;28;20207;-69
2022/04/21 08:18:10;;;;;;;10.37;9.37;;;;;;;11.13;59.96;97432.84;4995010;28;20317;-69
2022/04/21 08:20:37;;;;;;;10.30;9.40;;;;;;;11.10;59.28;97428.00;4995177;28;20218;-69
2022/04/21 08:23:04;;;;;;;14.77;9.83;;;;;;;11.09;60.82;97427.19;4994849;28;20227;-69
2022/04/21 08:33:53;;;;;;;11.30;10.13;;;;;;;11.83;57.65;97415.47;4987476;28;20203;-69
2022/04/21 08:36:19;;;;;;;11.63;10.30;;;;;;;11.59;57.34;97407.84;4994357;28;20203;-70
2022/04/21 08:38:47;;;;;;;11.93;10.73;;;;;;;11.98;58.13;97410.38;4994619;28;20250;-69
2022/04/21 08:41:18;;;;;;;10.73;9.83;;;;;;;11.59;56.97;97406.00;4994406;28;20207;-70
2022/04/21 08:43:47;;;;;;;11.20;10.20;;;;;;;11.79;57.27;97403.69;4994395;28;20220;-69
2022/04/21 08:46:19;;;;;;;11.43;10.23;;;;;;;11.81;55.95;97409.59;4994319;28;20207;-69
2022/04/21 08:48:48;;;;;;;10.50;9.40;;;;;;;11.89;57.95;97401.19;4994024;28;20315;-70
2022/04/21 08:51:15;;;;;;;12.30;9.73;;;;;;;12.08;56.21;97407.88;4994328;28;20208;-70
2022/04/21 08:53:42;;;;;;;10.77;9.70;;;;;;;12.26;57.51;97404.94;4994258;28;20204;-70
2022/04/21 08:56:10;;;;;;;11.07;10.07;;;;;;;12.18;55.72;97404.56;4994318;28;20213;-70
2022/04/21 08:58:36;;;;;;;11.63;9.30;;;;;;;12.20;55.90;97397.94;4994886;28;20226;-70
2022/04/21 09:01:03;;;;;;;10.30;9.40;;;;;;;12.53;55.21;97403.19;4994552;28;20216;-69
2022/04/21 09:03:33;;;;;;;10.33;9.33;;;;;;;12.37;55.55;97403.22;4993714;28;20223;-70
2022/04/21 09:06:00;;;;;;;10.07;8.87;;;;;;;12.54;55.46;97390.66;4994187;28;20344;-70
2022/04/21 09:08:27;;;;;;;10.00;9.07;;;;;;;13.10;54.34;97393.78;4994171;28;20228;-70
2022/04/21 09:11:07;;;;;;;9.57;8.70;;;;;;;13.01;52.70;97394.47;4994106;28;20646;-70
2022/04/21 09:13:36;;;;;;;9.70;8.80;;;;;;;13.07;51.38;97394.28;4994233;28;20188;-70
2022/04/21 09:16:11;;;;;;;10.00;9.10;;;;;;;12.83;52.51;97398.25;4994282;28;20209;-70
2022/04/21 09:18:46;;;;;;;10.00;9.10;;;;;;;12.53;52.62;97392.53;4993950;28;20318;-70
2022/04/21 09:21:17;;;;;;;9.47;8.53;;;;;;;12.93;53.05;97397.56;4993916;28;20206;-71
2022/04/21 09:23:45;;;;;;;8.77;7.87;;;;;;;13.24;50.71;97387.00;4993962;28;20217;-71
2022/04/21 09:26:17;;;;;;;10.30;9.40;;;;;;;13.32;50.55;97394.56;4993729;28;20218;-70
2022/04/21 09:28:53;;;;;;;10.00;9.10;;;;;;;13.31;50.38;97392.97;4993578;28;20283;-70
2022/04/21 09:31:19;;;;;;;9.70;8.80;;;;;;;13.54;50.80;97384.63;4993918;28;20193;-70
2022/04/21 09:33:46;;;;;;;9.13;8.30;;;;;;;13.76;48.28;97388.03;4993328;28;20210;-70
2022/04/21 09:36:13;;;;;;;9.40;8.60;;;;;;;13.80;49.16;97377.63;4993693;28;20218;-71
2022/04/21 09:38:40;;;;;;;9.00;8.20;;;;;;;13.67;47.95;97381.53;4996166;28;20233;-69
2022/04/21 09:41:11;;;;;;;9.00;8.20;;;;;;;13.71;49.92;97379.16;4997557;28;20211;-70
2022/04/21 09:43:38;;;;;;;9.00;8.10;;;;;;;13.86;50.16;97369.41;4997513;28;20237;-71
2022/04/21 09:46:15;;;;;;;8.37;7.57;;;;;;;13.68;47.48;97369.78;4997480;28;20272;-70
2022/04/21 09:48:43;;;;;;;8.00;7.30;;;;;;;14.29;47.40;97368.38;4997620;28;20250;-70
2022/04/21 09:51:17;;;;;;;8.17;7.50;;;;;;;14.15;48.73;97362.63;4997330;28;20677;-72
2022/04/21 09:53:56;;;;;;;8.30;7.53;;;;;;;14.05;49.13;97357.25;4997769;28;20198;-72
2022/04/21 09:56:40;;;;;;;7.93;7.13;;;;;;;14.31;48.57;97353.69;4997581;28;20309;-71
2022/04/21 09:59:12;;;;;;;8.17;7.47;;;;;;;14.03;48.86;97348.69;4997632;28;20210;-70
2022/04/21 10:01:41;;;;;;;7.40;6.70;;;;;;;14.30;46.98;97340.59;4997416;28;20253;-70
2022/04/21 10:04:12;;;;;;;6.43;5.83;;;;;;;14.66;46.48;97351.16;4996891;28;20234;-70
2022/04/21 10:06:40;;;;;;;6.63;6.07;;;;;;;14.57;46.47;97343.91;5006308;28;20202;-70
2022/04/21 10:09:07;;;;;;;6.33;5.73;;;;;;;14.35;46.65;97338.75;5012355;28;20206;-70
2022/04/21 10:11:37;;;;;;;5.47;5.00;;;;;;;14.92;45.90;97339.50;5004306;28;20240;-70
2022/04/21 10:14:05;;;;;;;6.47;5.87;;;;;;;14.93;45.97;97346.44;4997036;28;20617;-69
2022/04/21 10:16:33;;;;;;;6.37;5.77;;;;;;;14.83;45.30;97335.72;4999035;28;20211;-70
2022/04/21 10:19:01;;;;;;;5.03;4.57;;;;;;;15.06;45.56;97324.53;5011871;28;20217;-69
2022/04/21 10:21:59;;;;;;;6.33;5.70;;;;;;;14.79;45.04;97326.59;5016378;28;20214;-70
2022/04/21 10:24:27;;;;;;;5.57;5.10;;;;;;;14.84;46.22;97329.28;5013203;28;20321;-69
2022/04/21 10:26:55;;;;;;;5.43;5.03;;;;;;;14.48;46.09;97329.44;5012504;28;21181;-70
2022/04/21 10:29:23;;;;;;;5.57;5.07;;;;;;;14.45;46.91;97333.44;5015289;28;20289;-69
2022/04/21 10:31:56;;;;;;;6.37;5.17;;;;;;;13.48;47.37;97318.09;5016915;28;20207;-69
2022/04/21 10:34:31;;;;;;;5.80;5.30;;;;;;;13.85;48.51;97332.25;5015362;28;20205;-68
2022/04/21 10:37:21;;;;;;;5.33;4.93;;;;;;;13.62;48.78;97322.72;5009533;28;20232;-67
2022/04/21 10:39:59;;;;;;;5.40;4.90;;;;;;;13.80;49.42;97318.84;5001589;28;20297;-68
2022/04/21 10:42:26;;;;;;;7.53;5.43;;;;;;;13.78;48.00;97313.75;5015777;28;20214;-67
2022/04/21 10:44:54;;;;;;;5.60;5.20;;;;;;;14.19;46.97;97304.94;5012421;28;20210;-70
2022/04/21 10:47:29;;;;;;;5.13;4.73;;;;;;;14.49;47.90;97291.75;5016953;28;20255;-70
2022/04/21 10:49:57;;;;;;;5.50;5.10;;;;;;;14.78;46.92;97292.88;5012718;28;20206;-70
2022/04/21 10:58:34;;;;;;;4.67;4.27;;;;;;;15.57;47.05;97286.06;5016209;28;20209;-70
2022/04/21 11:01:11;;;;;;;5.27;4.10;;;;;;;15.49;45.92;97283.91;4995816;28;20694;-69
2022/04/21 11:03:38;;;;;;;4.20;3.90;;;;;;;15.38;45.51;97266.22;5011928;28;20229;-69
2022/04/21 11:06:06;;;;;;;4.10;3.70;;;;;;;15.84;44.57;97281.19;5015767;28;20209;-69
2022/04/21 11:08:33;;;;;;;3.70;3.40;;;;;;;15.59;44.45;97265.16;5014279;28;20572;-69
2022/04/21 11:10:59;;;;;;;4.27;3.53;;;;;;;15.31;47.25;97271.03;5015550;28;20206;-70
2022/04/21 11:13:51;;;;;;;4.50;4.10;;;;;;;14.92;46.11;97263.78;5012545;28;20211;-70
2022/04/21 11:16:45;;;;;;;4.23;3.10;;;;;;;15.35;46.44;97266.78;5015399;28;20666;-69
2022/04/21 11:19:29;;;;;;;4.00;3.70;;;;;;;15.26;46.91;97257.66;4996295;28;20235;-70
2022/04/21 11:21:57;;;;;;;4.10;3.80;;;;;;;15.17;46.13;97261.94;4997087;28;20306;-70
2022/04/21 11:24:25;;;;;;;3.53;3.27;;;;;;;15.70;45.59;97258.69;5015075;28;20249;-70
2022/04/21 11:26:55;;;;;;;3.30;3.10;;;;;;;15.96;45.59;97260.25;5014355;28;20235;-70
2022/04/21 11:29:22;;;;;;;3.63;3.20;;;;;;;15.80;44.51;97252.53;5015302;28;20194;-69
2022/04/21 11:31:48;;;;;;;3.83;3.43;;;;;;;15.40;44.38;97245.34;5012382;28;20206;-70
2022/04/21 11:34:22;;;;;;;3.60;3.20;;;;;;;15.69;44.92;97240.25;5015417;28;20242;-69
2022/04/21 11:36:49;;;;;;;3.17;2.90;;;;;;;15.61;45.04;97246.13;5013832;28;20226;-69
2022/04/21 11:39:16;;;;;;;3.10;2.83;;;;;;;15.05;45.09;97226.56;5013333;28;20202;-68
2022/04/21 11:41:44;;;;;;;2.90;2.70;;;;;;;15.70;46.56;97234.59;5014417;28;20211;-69
2022/04/21 11:44:11;;;;;;;3.23;3.03;;;;;;;16.17;43.73;97236.88;5015291;28;20226;-69
2022/04/21 11:46:42;;;;;;;3.03;2.77;;;;;;;15.93;44.91;97234.00;5014773;28;20251;-70
2022/04/21 11:49:09;;;;;;;2.40;2.20;;;;;;;15.61;44.57;97232.75;5011517;28;20198;-68
2022/04/21 11:51:35;;;;;;;2.57;2.27;;;;;;;15.59;45.29;97233.00;5014960;28;20221;-69
2022/04/21 11:54:06;;;;;;;2.63;2.43;;;;;;;15.47;45.28;97227.13;5013216;28;20669;-69
2022/04/21 11:56:33;;;;;;;2.40;2.20;;;;;;;15.48;46.14;97219.91;5014321;28;20685;-69
2022/04/21 11:59:10;;;;;;;2.10;2.00;;;;;;;15.56;43.77;97212.09;5003085;28;20213;-70
2022/04/21 12:07:09;;;;;;;2.50;2.30;;;;;;;16.00;43.11;97209.56;5013471;28;20348;-69
2022/04/21 12:09:40;;;;;;;1.90;1.80;;;;;;;16.02;42.88;97216.28;5012913;28;20203;-68
2022/04/21 12:12:08;;;;;;;4.43;1.97;;;;;;;16.13;44.14;97209.81;5011782;28;20213;-70
2022/04/21 12:14:36;;;;;;;3.17;2.17;;;;;;;16.03;44.26;97206.38;4995305;28;20203;-69
2022/04/21 12:17:04;;;;;;;3.30;2.17;;;;;;;15.90;43.48;97205.06;4994023;28;20235;-69
2022/04/21 12:19:39;;;;;;;3.77;2.43;;;;;;;15.63;44.44;97199.25;5009271;28;20214;-69
2022/04/21 12:22:10;;;;;;;4.93;2.17;;;;;;;15.92;44.55;97194.09;5012058;28;20206;-69
2022/04/21 12:24:43;;;;;;;2.20;1.90;;;;;;;15.86;42.67;97201.31;4994681;28;20235;-70
2022/04/21 12:27:14;;;;;;;2.80;2.60;;;;;;;15.86;43.42;97189.78;4994504;28;20315;-69
2022/04/21 12:29:50;;;;;;;2.23;2.10;;;;;;;15.98;43.73;97190.28;5012598;28;20210;-69
2022/04/21 12:32:18;;;;;;;3.00;1.90;;;;;;;16.27;44.54;97186.69;5012859;28;20206;-69
2022/04/21 12:34:45;;;;;;;2.33;2.13;;;;;;;16.41;42.76;97186.91;5014193;28;20207;-70
2022/04/21 12:37:11;;;;;;;2.10;1.90;;;;;;;16.69;42.24;97178.97;5010244;28;20231;-69